Denhawken, Texas
Current Conditions -  °F | °C
As of 10:58 PM on Friday 19 Dec 2014 (Local Time) from KRND Reporting Station
Overcast Overcast  
Wind Chill: 51°   Ceiling: 1300
Heat Index: 51°   Visibility: 10mi
Dew Point: 45°   Wind: 14mph
Humidity: 81%   Direction: 360°N
Pressure: 30.17"   Gusts: NA
Location:  29.2327°N, 97.8937°W
Report Text: KRND 200458Z AUTO 36012KT 10SM OVC013 11/07 A3017 RMK AO2 SLP216 T01050073
Loading
Personal Weather Stations






























Interactive Weather Map New forecast layout! Learn more

10-Day Weather Forecast

Advertisements
Track Severe Weather on mobile